sensor_id;sensor_type;location;lat;lon;timestamp;temperature;humidity
56729;DHT22;42612;52.232;7.560;2022-07-23T00:02:21;21.60;51.00
56729;DHT22;42612;52.232;7.560;2022-07-23T00:05:07;21.60;51.10
56729;DHT22;42612;52.232;7.560;2022-07-23T00:07:53;21.60;51.20
56729;DHT22;42612;52.232;7.560;2022-07-23T00:10:39;21.60;51.50
56729;DHT22;42612;52.232;7.560;2022-07-23T00:13:25;21.60;51.40
56729;DHT22;42612;52.232;7.560;2022-07-23T00:16:11;21.60;51.50
56729;DHT22;42612;52.232;7.560;2022-07-23T00:18:57;21.60;51.70
56729;DHT22;42612;52.232;7.560;2022-07-23T00:21:46;21.60;51.70
56729;DHT22;42612;52.232;7.560;2022-07-23T00:24:32;21.60;51.70
56729;DHT22;42612;52.232;7.560;2022-07-23T00:27:18;21.60;51.70
56729;DHT22;42612;52.232;7.560;2022-07-23T00:30:04;21.60;51.70
56729;DHT22;42612;52.232;7.560;2022-07-23T00:32:52;21.60;51.70
56729;DHT22;42612;52.232;7.560;2022-07-23T00:35:41;21.60;52.10
56729;DHT22;42612;52.232;7.560;2022-07-23T00:38:27;21.60;51.70
56729;DHT22;42612;52.232;7.560;2022-07-23T00:41:15;21.60;51.90
56729;DHT22;42612;52.232;7.560;2022-07-23T00:44:18;21.60;51.80
56729;DHT22;42612;52.232;7.560;2022-07-23T00:47:05;21.60;51.90
56729;DHT22;42612;52.232;7.560;2022-07-23T00:49:51;21.60;51.90
56729;DHT22;42612;52.232;7.560;2022-07-23T00:52:37;21.60;51.90
56729;DHT22;42612;52.232;7.560;2022-07-23T00:55:24;21.60;51.80
56729;DHT22;42612;52.232;7.560;2022-07-23T00:58:10;21.60;52.00
56729;DHT22;42612;52.232;7.560;2022-07-23T01:00:56;21.60;51.90
56729;DHT22;42612;52.232;7.560;2022-07-23T01:03:42;21.60;52.20
56729;DHT22;42612;52.232;7.560;2022-07-23T01:06:28;21.60;51.90
56729;DHT22;42612;52.232;7.560;2022-07-23T01:09:14;21.60;52.00
56729;DHT22;42612;52.232;7.560;2022-07-23T01:12:01;21.50;52.00
56729;DHT22;42612;52.232;7.560;2022-07-23T01:14:56;21.60;52.40
56729;DHT22;42612;52.232;7.560;2022-07-23T01:17:43;21.50;52.40
56729;DHT22;42612;52.232;7.560;2022-07-23T01:20:30;21.60;52.60
56729;DHT22;42612;52.232;7.560;2022-07-23T01:23:16;21.60;52.50
56729;DHT22;42612;52.232;7.560;2022-07-23T01:26:02;21.60;52.60
56729;DHT22;42612;52.232;7.560;2022-07-23T01:28:48;21.60;52.60
56729;DHT22;42612;52.232;7.560;2022-07-23T01:31:34;21.60;52.70
56729;DHT22;42612;52.232;7.560;2022-07-23T01:34:20;21.60;52.80
56729;DHT22;42612;52.232;7.560;2022-07-23T01:37:06;21.60;52.50
56729;DHT22;42612;52.232;7.560;2022-07-23T01:39:51;21.60;52.50
56729;DHT22;42612;52.232;7.560;2022-07-23T01:42:37;21.60;52.50
56729;DHT22;42612;52.232;7.560;2022-07-23T01:45:23;21.60;52.60
56729;DHT22;42612;52.232;7.560;2022-07-23T01:48:09;21.60;52.60
56729;DHT22;42612;52.232;7.560;2022-07-23T01:50:55;21.60;52.60
56729;DHT22;42612;52.232;7.560;2022-07-23T01:53:41;21.50;52.50
56729;DHT22;42612;52.232;7.560;2022-07-23T01:56:27;21.50;52.50
56729;DHT22;42612;52.232;7.560;2022-07-23T01:59:13;21.50;52.40
56729;DHT22;42612;52.232;7.560;2022-07-23T02:01:59;21.50;52.50
56729;DHT22;42612;52.232;7.560;2022-07-23T02:04:45;21.50;52.60
56729;DHT22;42612;52.232;7.560;2022-07-23T02:07:31;21.50;52.50
56729;DHT22;42612;52.232;7.560;2022-07-23T02:10:17;21.40;52.60
56729;DHT22;42612;52.232;7.560;2022-07-23T02:13:03;21.40;52.70
56729;DHT22;42612;52.232;7.560;2022-07-23T02:15:49;21.30;52.90
56729;DHT22;42612;52.232;7.560;2022-07-23T02:18:35;21.30;52.70
56729;DHT22;42612;52.232;7.560;2022-07-23T02:21:21;21.30;52.90
56729;DHT22;42612;52.232;7.560;2022-07-23T02:24:07;21.20;52.70
56729;DHT22;42612;52.232;7.560;2022-07-23T02:26:53;21.20;52.80
56729;DHT22;42612;52.232;7.560;2022-07-23T02:29:39;21.20;52.90
56729;DHT22;42612;52.232;7.560;2022-07-23T02:32:25;21.20;53.00
56729;DHT22;42612;52.232;7.560;2022-07-23T02:35:11;21.20;53.00
56729;DHT22;42612;52.232;7.560;2022-07-23T02:37:57;21.10;53.10
56729;DHT22;42612;52.232;7.560;2022-07-23T02:40:43;21.10;53.10
56729;DHT22;42612;52.232;7.560;2022-07-23T02:43:29;21.10;53.10
56729;DHT22;42612;52.232;7.560;2022-07-23T02:46:15;21.10;53.20
56729;DHT22;42612;52.232;7.560;2022-07-23T02:49:01;21.10;53.20
56729;DHT22;42612;52.232;7.560;2022-07-23T02:51:47;21.10;53.30
56729;DHT22;42612;52.232;7.560;2022-07-23T02:54:33;21.10;53.20
56729;DHT22;42612;52.232;7.560;2022-07-23T02:57:19;21.10;53.10
56729;DHT22;42612;52.232;7.560;2022-07-23T03:00:06;21.10;53.10
56729;DHT22;42612;52.232;7.560;2022-07-23T03:02:52;21.10;53.20
56729;DHT22;42612;52.232;7.560;2022-07-23T03:05:38;21.00;53.10
56729;DHT22;42612;52.232;7.560;2022-07-23T03:08:24;21.00;53.10
56729;DHT22;42612;52.232;7.560;2022-07-23T03:11:10;21.00;52.90
56729;DHT22;42612;52.232;7.560;2022-07-23T03:13:56;21.00;52.90
56729;DHT22;42612;52.232;7.560;2022-07-23T03:16:42;21.00;52.80
56729;DHT22;42612;52.232;7.560;2022-07-23T03:19:28;21.00;52.90
56729;DHT22;42612;52.232;7.560;2022-07-23T03:22:14;21.00;53.20
56729;DHT22;42612;52.232;7.560;2022-07-23T03:25:00;21.00;53.10
56729;DHT22;42612;52.232;7.560;2022-07-23T03:27:46;21.00;53.10
56729;DHT22;42612;52.232;7.560;2022-07-23T03:30:32;20.90;53.00
56729;DHT22;42612;52.232;7.560;2022-07-23T03:33:19;20.90;53.00
56729;DHT22;42612;52.232;7.560;2022-07-23T03:36:06;20.90;53.00
56729;DHT22;42612;52.232;7.560;2022-07-23T03:38:52;20.90;53.20
56729;DHT22;42612;52.232;7.560;2022-07-23T03:41:38;20.80;53.10
56729;DHT22;42612;52.232;7.560;2022-07-23T03:44:24;20.80;53.00
56729;DHT22;42612;52.232;7.560;2022-07-23T03:47:10;20.80;52.90
56729;DHT22;42612;52.232;7.560;2022-07-23T03:49:56;20.80;53.00
56729;DHT22;42612;52.232;7.560;2022-07-23T03:52:42;20.80;52.90
56729;DHT22;42612;52.232;7.560;2022-07-23T03:55:28;20.80;53.10
56729;DHT22;42612;52.232;7.560;2022-07-23T03:58:14;20.70;52.90
56729;DHT22;42612;52.232;7.560;2022-07-23T04:01:00;20.70;52.90
56729;DHT22;42612;52.232;7.560;2022-07-23T04:03:46;20.70;53.20
56729;DHT22;42612;52.232;7.560;2022-07-23T04:06:32;20.70;53.20
56729;DHT22;42612;52.232;7.560;2022-07-23T04:09:18;20.60;53.20
56729;DHT22;42612;52.232;7.560;2022-07-23T04:12:04;20.60;54.10
56729;DHT22;42612;52.232;7.560;2022-07-23T04:14:50;20.60;53.40
56729;DHT22;42612;52.232;7.560;2022-07-23T04:17:36;20.60;53.50
56729;DHT22;42612;52.232;7.560;2022-07-23T04:20:22;20.50;53.50
56729;DHT22;42612;52.232;7.560;2022-07-23T04:23:08;20.50;53.50
56729;DHT22;42612;52.232;7.560;2022-07-23T04:25:55;20.50;53.30
56729;DHT22;42612;52.232;7.560;2022-07-23T04:28:41;20.50;53.10
56729;DHT22;42612;52.232;7.560;2022-07-23T04:31:27;20.50;53.20
56729;DHT22;42612;52.232;7.560;2022-07-23T04:34:13;20.50;53.20
56729;DHT22;42612;52.232;7.560;2022-07-23T04:36:59;20.50;53.30
56729;DHT22;42612;52.232;7.560;2022-07-23T04:39:45;20.50;53.30
56729;DHT22;42612;52.232;7.560;2022-07-23T04:42:31;20.40;53.20
56729;DHT22;42612;52.232;7.560;2022-07-23T04:45:16;20.40;53.40
56729;DHT22;42612;52.232;7.560;2022-07-23T04:48:03;20.40;53.50
56729;DHT22;42612;52.232;7.560;2022-07-23T04:50:49;20.40;53.50
56729;DHT22;42612;52.232;7.560;2022-07-23T04:53:36;20.40;53.50
56729;DHT22;42612;52.232;7.560;2022-07-23T04:56:23;20.40;53.50
56729;DHT22;42612;52.232;7.560;2022-07-23T04:59:09;20.40;53.70
56729;DHT22;42612;52.232;7.560;2022-07-23T05:01:55;20.50;53.90
56729;DHT22;42612;52.232;7.560;2022-07-23T05:04:41;20.40;53.70
56729;DHT22;42612;52.232;7.560;2022-07-23T05:07:27;20.50;53.80
56729;DHT22;42612;52.232;7.560;2022-07-23T05:10:13;20.50;53.90
56729;DHT22;42612;52.232;7.560;2022-07-23T05:12:59;20.50;54.00
56729;DHT22;42612;52.232;7.560;2022-07-23T05:15:45;20.50;54.00
56729;DHT22;42612;52.232;7.560;2022-07-23T05:18:31;20.50;54.10
56729;DHT22;42612;52.232;7.560;2022-07-23T05:21:17;20.50;54.30
56729;DHT22;42612;52.232;7.560;2022-07-23T05:24:03;20.50;54.10
56729;DHT22;42612;52.232;7.560;2022-07-23T05:26:49;20.50;54.10
56729;DHT22;42612;52.232;7.560;2022-07-23T05:29:35;20.50;54.00
56729;DHT22;42612;52.232;7.560;2022-07-23T05:32:21;20.60;54.00
56729;DHT22;42612;52.232;7.560;2022-07-23T05:35:07;20.60;54.00
56729;DHT22;42612;52.232;7.560;2022-07-23T05:37:53;20.60;53.90
56729;DHT22;42612;52.232;7.560;2022-07-23T05:40:39;20.70;54.20
56729;DHT22;42612;52.232;7.560;2022-07-23T05:43:25;20.70;54.30
56729;DHT22;42612;52.232;7.560;2022-07-23T05:46:11;20.70;54.20
56729;DHT22;42612;52.232;7.560;2022-07-23T05:48:57;20.80;54.30
56729;DHT22;42612;52.232;7.560;2022-07-23T05:51:43;20.70;54.30
56729;DHT22;42612;52.232;7.560;2022-07-23T05:54:29;20.80;54.30
56729;DHT22;42612;52.232;7.560;2022-07-23T05:57:15;20.90;54.30
56729;DHT22;42612;52.232;7.560;2022-07-23T06:00:02;20.90;54.30
56729;DHT22;42612;52.232;7.560;2022-07-23T06:02:49;20.90;54.40
56729;DHT22;42612;52.232;7.560;2022-07-23T06:05:36;20.90;55.10
56729;DHT22;42612;52.232;7.560;2022-07-23T06:08:21;20.90;54.30
56729;DHT22;42612;52.232;7.560;2022-07-23T06:11:07;21.00;54.30
56729;DHT22;42612;52.232;7.560;2022-07-23T06:13:54;21.00;54.30
56729;DHT22;42612;52.232;7.560;2022-07-23T06:16:39;21.00;54.30
56729;DHT22;42612;52.232;7.560;2022-07-23T06:19:26;21.00;54.20
56729;DHT22;42612;52.232;7.560;2022-07-23T06:22:12;21.00;54.00
56729;DHT22;42612;52.232;7.560;2022-07-23T06:24:58;21.00;54.00
56729;DHT22;42612;52.232;7.560;2022-07-23T06:27:44;21.00;54.10
56729;DHT22;42612;52.232;7.560;2022-07-23T06:30:30;21.00;54.10
56729;DHT22;42612;52.232;7.560;2022-07-23T06:33:16;21.00;53.90
56729;DHT22;42612;52.232;7.560;2022-07-23T06:36:02;21.10;54.00
56729;DHT22;42612;52.232;7.560;2022-07-23T06:38:48;21.10;53.90
56729;DHT22;42612;52.232;7.560;2022-07-23T06:41:34;21.10;53.90
56729;DHT22;42612;52.232;7.560;2022-07-23T06:44:20;21.20;53.90
56729;DHT22;42612;52.232;7.560;2022-07-23T06:47:06;21.20;53.90
56729;DHT22;42612;52.232;7.560;2022-07-23T06:49:52;21.20;53.60
56729;DHT22;42612;52.232;7.560;2022-07-23T06:52:38;21.30;53.50
56729;DHT22;42612;52.232;7.560;2022-07-23T06:55:24;21.30;53.40
56729;DHT22;42612;52.232;7.560;2022-07-23T06:58:10;21.40;53.50
56729;DHT22;42612;52.232;7.560;2022-07-23T07:00:56;21.30;53.50
56729;DHT22;42612;52.232;7.560;2022-07-23T07:03:42;21.40;53.60
56729;DHT22;42612;52.232;7.560;2022-07-23T07:06:28;21.40;53.60
56729;DHT22;42612;52.232;7.560;2022-07-23T07:09:14;21.40;53.60
56729;DHT22;42612;52.232;7.560;2022-07-23T07:12:00;21.40;53.70
56729;DHT22;42612;52.232;7.560;2022-07-23T07:14:47;21.50;53.60
56729;DHT22;42612;52.232;7.560;2022-07-23T07:17:33;21.50;53.50
56729;DHT22;42612;52.232;7.560;2022-07-23T07:20:19;21.60;53.40
56729;DHT22;42612;52.232;7.560;2022-07-23T07:23:05;21.60;53.50
56729;DHT22;42612;52.232;7.560;2022-07-23T07:25:50;21.70;53.40
56729;DHT22;42612;52.232;7.560;2022-07-23T07:28:36;21.80;53.30
56729;DHT22;42612;52.232;7.560;2022-07-23T07:31:22;21.70;53.20
56729;DHT22;42612;52.232;7.560;2022-07-23T07:34:08;21.80;53.00
56729;DHT22;42612;52.232;7.560;2022-07-23T07:36:54;21.80;53.00
56729;DHT22;42612;52.232;7.560;2022-07-23T07:39:40;21.80;52.80
56729;DHT22;42612;52.232;7.560;2022-07-23T07:42:26;21.80;52.90
56729;DHT22;42612;52.232;7.560;2022-07-23T07:45:12;21.80;52.70
56729;DHT22;42612;52.232;7.560;2022-07-23T07:47:58;21.90;52.90
56729;DHT22;42612;52.232;7.560;2022-07-23T07:50:44;22.00;53.00
56729;DHT22;42612;52.232;7.560;2022-07-23T07:53:30;22.00;52.90
56729;DHT22;42612;52.232;7.560;2022-07-23T07:56:16;22.10;53.00
56729;DHT22;42612;52.232;7.560;2022-07-23T07:59:02;22.20;52.80
56729;DHT22;42612;52.232;7.560;2022-07-23T08:01:48;22.20;52.50
56729;DHT22;42612;52.232;7.560;2022-07-23T08:04:34;22.20;52.30
56729;DHT22;42612;52.232;7.560;2022-07-23T08:07:20;22.30;52.30
56729;DHT22;42612;52.232;7.560;2022-07-23T08:10:07;22.30;52.20
56729;DHT22;42612;52.232;7.560;2022-07-23T08:12:54;22.30;52.10
56729;DHT22;42612;52.232;7.560;2022-07-23T08:15:42;22.30;51.90
56729;DHT22;42612;52.232;7.560;2022-07-23T08:18:29;22.30;51.90
56729;DHT22;42612;52.232;7.560;2022-07-23T08:21:14;22.30;52.10
56729;DHT22;42612;52.232;7.560;2022-07-23T08:24:00;22.40;52.10
56729;DHT22;42612;52.232;7.560;2022-07-23T08:26:46;22.50;51.90
56729;DHT22;42612;52.232;7.560;2022-07-23T08:29:32;22.50;51.70
56729;DHT22;42612;52.232;7.560;2022-07-23T08:32:18;22.50;51.60
56729;DHT22;42612;52.232;7.560;2022-07-23T08:35:04;22.60;51.70
56729;DHT22;42612;52.232;7.560;2022-07-23T08:37:50;22.60;51.80
56729;DHT22;42612;52.232;7.560;2022-07-23T08:40:44;22.60;51.80
56729;DHT22;42612;52.232;7.560;2022-07-23T08:43:32;22.70;51.70
56729;DHT22;42612;52.232;7.560;2022-07-23T08:46:20;22.70;51.60
56729;DHT22;42612;52.232;7.560;2022-07-23T08:49:06;22.80;51.50
56729;DHT22;42612;52.232;7.560;2022-07-23T08:51:52;22.80;51.30
56729;DHT22;42612;52.232;7.560;2022-07-23T08:54:39;22.80;51.10
56729;DHT22;42612;52.232;7.560;2022-07-23T08:57:26;22.80;51.20
56729;DHT22;42612;52.232;7.560;2022-07-23T09:00:12;22.90;51.10
56729;DHT22;42612;52.232;7.560;2022-07-23T09:02:58;22.90;51.10
56729;DHT22;42612;52.232;7.560;2022-07-23T09:05:44;22.90;51.10
56729;DHT22;42612;52.232;7.560;2022-07-23T09:08:37;23.00;51.10
56729;DHT22;42612;52.232;7.560;2022-07-23T09:11:27;23.00;51.00
56729;DHT22;42612;52.232;7.560;2022-07-23T09:14:13;23.10;50.90
56729;DHT22;42612;52.232;7.560;2022-07-23T09:17:07;23.10;51.00
56729;DHT22;42612;52.232;7.560;2022-07-23T09:19:54;23.20;50.90
56729;DHT22;42612;52.232;7.560;2022-07-23T09:22:56;23.30;50.90
56729;DHT22;42612;52.232;7.560;2022-07-23T09:25:42;23.30;51.10
56729;DHT22;42612;52.232;7.560;2022-07-23T09:28:28;23.40;50.60
56729;DHT22;42612;52.232;7.560;2022-07-23T09:31:14;23.40;50.50
56729;DHT22;42612;52.232;7.560;2022-07-23T09:34:06;23.50;50.50
56729;DHT22;42612;52.232;7.560;2022-07-23T09:36:55;23.50;50.70
56729;DHT22;42612;52.232;7.560;2022-07-23T09:39:43;23.60;50.60
56729;DHT22;42612;52.232;7.560;2022-07-23T09:42:30;23.70;50.70
56729;DHT22;42612;52.232;7.560;2022-07-23T09:45:16;23.70;50.10
56729;DHT22;42612;52.232;7.560;2022-07-23T09:48:17;23.70;49.70
56729;DHT22;42612;52.232;7.560;2022-07-23T09:51:03;23.80;50.00
56729;DHT22;42612;52.232;7.560;2022-07-23T09:53:51;23.90;50.10
56729;DHT22;42612;52.232;7.560;2022-07-23T09:56:37;23.80;50.20
56729;DHT22;42612;52.232;7.560;2022-07-23T09:59:25;23.90;50.10
56729;DHT22;42612;52.232;7.560;2022-07-23T10:02:13;24.00;49.90
56729;DHT22;42612;52.232;7.560;2022-07-23T10:05:01;24.00;49.50
56729;DHT22;42612;52.232;7.560;2022-07-23T10:07:48;24.10;50.20
56729;DHT22;42612;52.232;7.560;2022-07-23T10:10:35;24.10;49.80
56729;DHT22;42612;52.232;7.560;2022-07-23T10:13:21;24.20;49.80
56729;DHT22;42612;52.232;7.560;2022-07-23T10:16:19;24.20;49.60
56729;DHT22;42612;52.232;7.560;2022-07-23T10:19:06;24.20;49.60
56729;DHT22;42612;52.232;7.560;2022-07-23T10:21:53;24.30;49.70
56729;DHT22;42612;52.232;7.560;2022-07-23T10:36:53;24.60;49.80
56729;DHT22;42612;52.232;7.560;2022-07-23T10:39:43;24.70;49.30
56729;DHT22;42612;52.232;7.560;2022-07-23T10:42:33;24.70;49.00
56729;DHT22;42612;52.232;7.560;2022-07-23T10:45:23;24.80;49.20
56729;DHT22;42612;52.232;7.560;2022-07-23T10:51:12;24.90;49.00
56729;DHT22;42612;52.232;7.560;2022-07-23T10:53:59;25.00;48.90
56729;DHT22;42612;52.232;7.560;2022-07-23T10:56:49;25.10;48.90
56729;DHT22;42612;52.232;7.560;2022-07-23T11:03:01;25.20;49.00
56729;DHT22;42612;52.232;7.560;2022-07-23T11:05:48;25.30;49.00
56729;DHT22;42612;52.232;7.560;2022-07-23T11:08:34;25.30;48.50
56729;DHT22;42612;52.232;7.560;2022-07-23T11:11:20;25.40;48.80
56729;DHT22;42612;52.232;7.560;2022-07-23T11:14:06;25.50;48.80
56729;DHT22;42612;52.232;7.560;2022-07-23T11:16:52;25.50;48.80
56729;DHT22;42612;52.232;7.560;2022-07-23T11:22:55;25.70;48.70
56729;DHT22;42612;52.232;7.560;2022-07-23T11:25:42;25.80;48.70
56729;DHT22;42612;52.232;7.560;2022-07-23T11:28:29;25.80;48.20
56729;DHT22;42612;52.232;7.560;2022-07-23T11:31:19;25.90;48.20
56729;DHT22;42612;52.232;7.560;2022-07-23T11:37:33;26.00;48.00
56729;DHT22;42612;52.232;7.560;2022-07-23T11:40:20;26.10;47.10
56729;DHT22;42612;52.232;7.560;2022-07-23T11:43:07;26.30;48.00
56729;DHT22;42612;52.232;7.560;2022-07-23T11:45:57;26.30;47.90
56729;DHT22;42612;52.232;7.560;2022-07-23T11:48:45;26.40;47.50
56729;DHT22;42612;52.232;7.560;2022-07-23T11:51:30;26.50;48.10
56729;DHT22;42612;52.232;7.560;2022-07-23T11:54:18;26.50;47.70
56729;DHT22;42612;52.232;7.560;2022-07-23T11:57:04;26.50;47.20
56729;DHT22;42612;52.232;7.560;2022-07-23T11:59:51;26.60;47.80
56729;DHT22;42612;52.232;7.560;2022-07-23T12:02:42;26.60;47.00
56729;DHT22;42612;52.232;7.560;2022-07-23T12:05:31;26.60;47.70
56729;DHT22;42612;52.232;7.560;2022-07-23T12:08:18;26.70;48.00
56729;DHT22;42612;52.232;7.560;2022-07-23T12:11:05;26.70;47.60
56729;DHT22;42612;52.232;7.560;2022-07-23T12:13:57;26.70;48.00
56729;DHT22;42612;52.232;7.560;2022-07-23T12:16:43;26.80;47.50
56729;DHT22;42612;52.232;7.560;2022-07-23T12:19:29;26.80;47.30
56729;DHT22;42612;52.232;7.560;2022-07-23T12:22:15;26.90;46.70
56729;DHT22;42612;52.232;7.560;2022-07-23T12:25:09;26.90;47.90
56729;DHT22;42612;52.232;7.560;2022-07-23T12:28:04;27.00;47.00
56729;DHT22;42612;52.232;7.560;2022-07-23T12:30:56;27.10;46.70
56729;DHT22;42612;52.232;7.560;2022-07-23T12:33:43;27.10;46.50
56729;DHT22;42612;52.232;7.560;2022-07-23T12:36:38;27.20;47.00
56729;DHT22;42612;52.232;7.560;2022-07-23T12:39:31;27.20;47.10
56729;DHT22;42612;52.232;7.560;2022-07-23T12:42:18;27.20;47.10
56729;DHT22;42612;52.232;7.560;2022-07-23T12:48:01;27.40;46.90
56729;DHT22;42612;52.232;7.560;2022-07-23T12:50:52;27.50;47.10
56729;DHT22;42612;52.232;7.560;2022-07-23T12:53:42;27.60;47.00
56729;DHT22;42612;52.232;7.560;2022-07-23T12:56:33;27.60;46.80
56729;DHT22;42612;52.232;7.560;2022-07-23T12:59:20;27.70;46.80
56729;DHT22;42612;52.232;7.560;2022-07-23T13:02:07;27.70;46.40
56729;DHT22;42612;52.232;7.560;2022-07-23T13:04:54;27.80;46.80
56729;DHT22;42612;52.232;7.560;2022-07-23T13:07:40;27.80;46.40
56729;DHT22;42612;52.232;7.560;2022-07-23T13:10:26;27.80;46.70
56729;DHT22;42612;52.232;7.560;2022-07-23T13:13:12;27.90;46.50
56729;DHT22;42612;52.232;7.560;2022-07-23T13:15:58;27.90;46.80
56729;DHT22;42612;52.232;7.560;2022-07-23T13:18:44;28.00;46.80
56729;DHT22;42612;52.232;7.560;2022-07-23T13:21:30;28.00;46.60
56729;DHT22;42612;52.232;7.560;2022-07-23T13:24:16;28.10;46.70
56729;DHT22;42612;52.232;7.560;2022-07-23T13:27:02;28.10;46.10
56729;DHT22;42612;52.232;7.560;2022-07-23T13:29:49;28.10;46.20
56729;DHT22;42612;52.232;7.560;2022-07-23T13:32:35;28.10;46.10
56729;DHT22;42612;52.232;7.560;2022-07-23T13:35:21;28.10;46.00
56729;DHT22;42612;52.232;7.560;2022-07-23T13:38:07;28.10;46.10
56729;DHT22;42612;52.232;7.560;2022-07-23T13:40:53;28.20;46.10
56729;DHT22;42612;52.232;7.560;2022-07-23T13:43:39;28.20;46.90
56729;DHT22;42612;52.232;7.560;2022-07-23T13:46:25;28.30;46.30
56729;DHT22;42612;52.232;7.560;2022-07-23T13:49:11;28.40;46.20
56729;DHT22;42612;52.232;7.560;2022-07-23T13:51:57;28.50;45.90
56729;DHT22;42612;52.232;7.560;2022-07-23T13:54:43;28.50;45.80
56729;DHT22;42612;52.232;7.560;2022-07-23T13:57:30;28.60;45.70
56729;DHT22;42612;52.232;7.560;2022-07-23T14:00:17;28.70;45.60
56729;DHT22;42612;52.232;7.560;2022-07-23T14:03:03;28.70;45.80
56729;DHT22;42612;52.232;7.560;2022-07-23T14:05:49;28.80;45.40
56729;DHT22;42612;52.232;7.560;2022-07-23T14:08:36;28.90;45.40
56729;DHT22;42612;52.232;7.560;2022-07-23T14:11:22;28.90;45.30
56729;DHT22;42612;52.232;7.560;2022-07-23T14:14:08;29.00;45.30
56729;DHT22;42612;52.232;7.560;2022-07-23T14:16:54;29.10;45.30
56729;DHT22;42612;52.232;7.560;2022-07-23T14:19:41;29.10;45.40
56729;DHT22;42612;52.232;7.560;2022-07-23T14:22:27;29.10;45.20
56729;DHT22;42612;52.232;7.560;2022-07-23T14:25:13;29.10;45.00
56729;DHT22;42612;52.232;7.560;2022-07-23T14:27:59;29.20;45.00
56729;DHT22;42612;52.232;7.560;2022-07-23T14:30:45;29.20;45.00
56729;DHT22;42612;52.232;7.560;2022-07-23T14:33:31;29.20;44.90
56729;DHT22;42612;52.232;7.560;2022-07-23T14:36:17;29.30;44.60
56729;DHT22;42612;52.232;7.560;2022-07-23T14:39:03;29.30;44.80
56729;DHT22;42612;52.232;7.560;2022-07-23T14:41:49;29.40;45.10
56729;DHT22;42612;52.232;7.560;2022-07-23T14:44:35;29.40;44.80
56729;DHT22;42612;52.232;7.560;2022-07-23T14:47:22;29.50;44.90
56729;DHT22;42612;52.232;7.560;2022-07-23T14:50:08;29.50;44.80
56729;DHT22;42612;52.232;7.560;2022-07-23T14:52:54;29.60;44.80
56729;DHT22;42612;52.232;7.560;2022-07-23T14:55:40;29.60;44.60
56729;DHT22;42612;52.232;7.560;2022-07-23T14:58:26;29.70;45.00
56729;DHT22;42612;52.232;7.560;2022-07-23T15:01:12;29.70;44.50
56729;DHT22;42612;52.232;7.560;2022-07-23T15:03:58;29.60;44.30
56729;DHT22;42612;52.232;7.560;2022-07-23T15:06:44;29.60;44.60
56729;DHT22;42612;52.232;7.560;2022-07-23T15:09:30;29.60;44.40
56729;DHT22;42612;52.232;7.560;2022-07-23T15:12:16;29.70;44.40
56729;DHT22;42612;52.232;7.560;2022-07-23T15:15:02;29.70;45.10
56729;DHT22;42612;52.232;7.560;2022-07-23T15:17:49;29.70;44.50
56729;DHT22;42612;52.232;7.560;2022-07-23T15:20:35;29.80;44.50
56729;DHT22;42612;52.232;7.560;2022-07-23T15:23:23;29.90;44.50
56729;DHT22;42612;52.232;7.560;2022-07-23T15:26:09;29.90;44.50
56729;DHT22;42612;52.232;7.560;2022-07-23T15:28:55;30.00;44.70
56729;DHT22;42612;52.232;7.560;2022-07-23T15:31:42;30.10;44.10
56729;DHT22;42612;52.232;7.560;2022-07-23T15:34:28;30.10;44.10
56729;DHT22;42612;52.232;7.560;2022-07-23T15:37:14;30.20;44.50
56729;DHT22;42612;52.232;7.560;2022-07-23T15:40:00;30.20;44.20
56729;DHT22;42612;52.232;7.560;2022-07-23T15:42:47;30.20;43.90
56729;DHT22;42612;52.232;7.560;2022-07-23T15:45:33;30.20;44.50
56729;DHT22;42612;52.232;7.560;2022-07-23T15:48:19;30.20;43.50
56729;DHT22;42612;52.232;7.560;2022-07-23T15:51:05;30.20;43.50
56729;DHT22;42612;52.232;7.560;2022-07-23T15:53:51;30.30;43.60
56729;DHT22;42612;52.232;7.560;2022-07-23T15:56:37;30.30;43.60
56729;DHT22;42612;52.232;7.560;2022-07-23T15:59:23;30.30;43.60
56729;DHT22;42612;52.232;7.560;2022-07-23T16:02:09;30.30;43.30
56729;DHT22;42612;52.232;7.560;2022-07-23T16:04:55;30.40;43.00
56729;DHT22;42612;52.232;7.560;2022-07-23T16:07:42;30.30;42.90
56729;DHT22;42612;52.232;7.560;2022-07-23T16:10:28;30.30;43.00
56729;DHT22;42612;52.232;7.560;2022-07-23T16:13:14;30.40;43.30
56729;DHT22;42612;52.232;7.560;2022-07-23T16:16:00;30.40;42.70
56729;DHT22;42612;52.232;7.560;2022-07-23T16:18:47;30.40;42.70
56729;DHT22;42612;52.232;7.560;2022-07-23T16:21:36;30.30;42.80
56729;DHT22;42612;52.232;7.560;2022-07-23T16:24:22;30.30;42.80
56729;DHT22;42612;52.232;7.560;2022-07-23T16:27:08;30.30;42.90
56729;DHT22;42612;52.232;7.560;2022-07-23T16:29:54;30.40;42.90
56729;DHT22;42612;52.232;7.560;2022-07-23T16:32:40;30.40;43.10
56729;DHT22;42612;52.232;7.560;2022-07-23T16:35:26;30.40;42.90
56729;DHT22;42612;52.232;7.560;2022-07-23T16:38:12;30.40;43.30
56729;DHT22;42612;52.232;7.560;2022-07-23T16:40:58;30.40;43.00
56729;DHT22;42612;52.232;7.560;2022-07-23T16:43:44;30.40;42.80
56729;DHT22;42612;52.232;7.560;2022-07-23T16:46:31;30.40;42.60
56729;DHT22;42612;52.232;7.560;2022-07-23T16:49:17;30.40;42.70
56729;DHT22;42612;52.232;7.560;2022-07-23T16:52:03;30.40;42.70
56729;DHT22;42612;52.232;7.560;2022-07-23T16:54:52;30.40;42.90
56729;DHT22;42612;52.232;7.560;2022-07-23T16:57:38;30.40;42.40
56729;DHT22;42612;52.232;7.560;2022-07-23T17:00:24;30.40;42.50
56729;DHT22;42612;52.232;7.560;2022-07-23T17:03:10;30.40;42.50
56729;DHT22;42612;52.232;7.560;2022-07-23T17:05:56;30.40;42.30
56729;DHT22;42612;52.232;7.560;2022-07-23T17:08:42;30.40;42.30
56729;DHT22;42612;52.232;7.560;2022-07-23T17:11:28;30.40;42.30
56729;DHT22;42612;52.232;7.560;2022-07-23T17:14:14;30.30;42.10
56729;DHT22;42612;52.232;7.560;2022-07-23T17:17:00;30.30;42.10
56729;DHT22;42612;52.232;7.560;2022-07-23T17:19:45;30.30;42.10
56729;DHT22;42612;52.232;7.560;2022-07-23T17:22:32;30.30;42.20
56729;DHT22;42612;52.232;7.560;2022-07-23T17:25:18;30.20;42.20
56729;DHT22;42612;52.232;7.560;2022-07-23T17:28:05;30.20;42.10
56729;DHT22;42612;52.232;7.560;2022-07-23T17:30:51;30.20;41.80
56729;DHT22;42612;52.232;7.560;2022-07-23T17:33:37;30.10;41.90
56729;DHT22;42612;52.232;7.560;2022-07-23T17:36:23;30.10;42.00
56729;DHT22;42612;52.232;7.560;2022-07-23T17:39:09;30.00;41.90
56729;DHT22;42612;52.232;7.560;2022-07-23T17:41:55;30.00;41.90
56729;DHT22;42612;52.232;7.560;2022-07-23T17:44:41;30.00;41.80
56729;DHT22;42612;52.232;7.560;2022-07-23T17:47:27;29.90;41.70
56729;DHT22;42612;52.232;7.560;2022-07-23T17:50:13;29.90;41.50
56729;DHT22;42612;52.232;7.560;2022-07-23T17:53:00;29.90;41.60
56729;DHT22;42612;52.232;7.560;2022-07-23T17:55:46;29.90;41.60
56729;DHT22;42612;52.232;7.560;2022-07-23T17:58:31;29.90;41.60
56729;DHT22;42612;52.232;7.560;2022-07-23T18:01:17;29.80;41.60